sensor_id;sensor_type;location;lat;lon;timestamp;pressure;altitude;pressure_sealevel;temperature;humidity
45541;BME280;31265;49.680;8.608;2023-06-22T00:00:37;100497.88;;;22.56;100.00
45541;BME280;31265;49.680;8.608;2023-06-22T00:03:06;100497.06;;;22.53;100.00
45541;BME280;31265;49.680;8.608;2023-06-22T00:05:36;100499.63;;;22.47;100.00
45541;BME280;31265;49.680;8.608;2023-06-22T00:08:04;100503.56;;;22.40;100.00
45541;BME280;31265;49.680;8.608;2023-06-22T00:10:33;100500.66;;;22.38;100.00
45541;BME280;31265;49.680;8.608;2023-06-22T00:13:02;100517.31;;;22.47;100.00
45541;BME280;31265;49.680;8.608;2023-06-22T00:15:30;100513.84;;;22.49;100.00
45541;BME280;31265;49.680;8.608;2023-06-22T00:17:58;100519.69;;;22.53;100.00
45541;BME280;31265;49.680;8.608;2023-06-22T00:20:27;100523.63;;;22.46;100.00
45541;BME280;31265;49.680;8.608;2023-06-22T00:22:59;100530.31;;;22.37;100.00
45541;BME280;31265;49.680;8.608;2023-06-22T00:25:28;100554.28;;;22.36;100.00
45541;BME280;31265;49.680;8.608;2023-06-22T00:27:56;100576.97;;;22.38;100.00
45541;BME280;31265;49.680;8.608;2023-06-22T00:30:25;100586.22;;;22.22;100.00
45541;BME280;31265;49.680;8.608;2023-06-22T00:32:57;100603.25;;;22.24;100.00
45541;BME280;31265;49.680;8.608;2023-06-22T00:35:26;100623.47;;;22.19;100.00
45541;BME280;31265;49.680;8.608;2023-06-22T00:37:55;100630.84;;;22.10;100.00
45541;BME280;31265;49.680;8.608;2023-06-22T00:40:29;100625.66;;;22.04;100.00
45541;BME280;31265;49.680;8.608;2023-06-22T00:42:58;100609.34;;;22.03;100.00
45541;BME280;31265;49.680;8.608;2023-06-22T00:45:27;100617.91;;;22.05;100.00
45541;BME280;31265;49.680;8.608;2023-06-22T00:47:56;100623.03;;;22.08;100.00
45541;BME280;31265;49.680;8.608;2023-06-22T00:50:27;100652.28;;;22.15;100.00
45541;BME280;31265;49.680;8.608;2023-06-22T00:53:03;100723.47;;;22.11;100.00
45541;BME280;31265;49.680;8.608;2023-06-22T00:55:37;100787.38;;;22.19;100.00
45541;BME280;31265;49.680;8.608;2023-06-22T00:58:06;100826.50;;;22.24;100.00
45541;BME280;31265;49.680;8.608;2023-06-22T01:00:38;100848.59;;;22.28;100.00
45541;BME280;31265;49.680;8.608;2023-06-22T01:03:07;100845.78;;;22.28;100.00
45541;BME280;31265;49.680;8.608;2023-06-22T01:05:38;100807.34;;;22.23;100.00
45541;BME280;31265;49.680;8.608;2023-06-22T01:08:19;100686.59;;;22.23;100.00
45541;BME280;31265;49.680;8.608;2023-06-22T01:10:54;100644.88;;;22.08;100.00
45541;BME280;31265;49.680;8.608;2023-06-22T01:13:28;100660.03;;;21.99;100.00
45541;BME280;31265;49.680;8.608;2023-06-22T01:16:03;100621.63;;;21.78;100.00
45541;BME280;31265;49.680;8.608;2023-06-22T01:18:35;100574.91;;;21.59;100.00
45541;BME280;31265;49.680;8.608;2023-06-22T01:21:04;100521.13;;;21.25;100.00
45541;BME280;31265;49.680;8.608;2023-06-22T01:23:51;100482.31;;;21.10;100.00
45541;BME280;31265;49.680;8.608;2023-06-22T01:26:28;100479.31;;;21.05;100.00
45541;BME280;31265;49.680;8.608;2023-06-22T01:29:06;100485.25;;;21.12;100.00
45541;BME280;31265;49.680;8.608;2023-06-22T01:31:36;100493.97;;;21.02;100.00
45541;BME280;31265;49.680;8.608;2023-06-22T01:34:06;100496.28;;;20.92;100.00
45541;BME280;31265;49.680;8.608;2023-06-22T01:36:35;100503.09;;;20.87;100.00
45541;BME280;31265;49.680;8.608;2023-06-22T01:39:05;100513.44;;;20.82;100.00
45541;BME280;31265;49.680;8.608;2023-06-22T01:41:36;100536.44;;;20.76;100.00
45541;BME280;31265;49.680;8.608;2023-06-22T01:44:07;100549.53;;;20.70;100.00
45541;BME280;31265;49.680;8.608;2023-06-22T01:46:37;100555.16;;;20.70;100.00
45541;BME280;31265;49.680;8.608;2023-06-22T01:49:07;100559.66;;;20.75;100.00
45541;BME280;31265;49.680;8.608;2023-06-22T01:51:36;100567.91;;;20.71;100.00
45541;BME280;31265;49.680;8.608;2023-06-22T01:54:06;100563.09;;;20.73;100.00
45541;BME280;31265;49.680;8.608;2023-06-22T01:56:36;100570.91;;;20.75;100.00
45541;BME280;31265;49.680;8.608;2023-06-22T01:59:11;100577.72;;;20.70;100.00
45541;BME280;31265;49.680;8.608;2023-06-22T02:01:44;100580.75;;;20.60;100.00
45541;BME280;31265;49.680;8.608;2023-06-22T02:04:21;100571.84;;;20.52;100.00
45541;BME280;31265;49.680;8.608;2023-06-22T02:06:55;100578.97;;;20.53;100.00
45541;BME280;31265;49.680;8.608;2023-06-22T02:09:26;100580.94;;;20.50;100.00
45541;BME280;31265;49.680;8.608;2023-06-22T02:11:57;100584.28;;;20.47;100.00
45541;BME280;31265;49.680;8.608;2023-06-22T02:14:29;100598.69;;;20.39;100.00
45541;BME280;31265;49.680;8.608;2023-06-22T02:16:57;100588.78;;;20.38;100.00
45541;BME280;31265;49.680;8.608;2023-06-22T02:19:27;100586.38;;;20.46;100.00
45541;BME280;31265;49.680;8.608;2023-06-22T02:22:00;100590.66;;;20.33;100.00
45541;BME280;31265;49.680;8.608;2023-06-22T02:24:28;100579.38;;;20.19;100.00
45541;BME280;31265;49.680;8.608;2023-06-22T02:26:59;100587.31;;;20.09;100.00
45541;BME280;31265;49.680;8.608;2023-06-22T02:29:29;100581.56;;;20.07;100.00
45541;BME280;31265;49.680;8.608;2023-06-22T02:31:57;100587.09;;;20.05;100.00
45541;BME280;31265;49.680;8.608;2023-06-22T02:34:25;100578.22;;;19.97;100.00
45541;BME280;31265;49.680;8.608;2023-06-22T02:36:53;100572.78;;;19.87;100.00
45541;BME280;31265;49.680;8.608;2023-06-22T02:39:23;100577.38;;;19.81;100.00
45541;BME280;31265;49.680;8.608;2023-06-22T02:41:53;100571.41;;;19.74;100.00
45541;BME280;31265;49.680;8.608;2023-06-22T02:44:22;100571.09;;;19.68;100.00
45541;BME280;31265;49.680;8.608;2023-06-22T02:46:52;100574.91;;;19.61;100.00
45541;BME280;31265;49.680;8.608;2023-06-22T02:49:21;100574.91;;;19.61;100.00
45541;BME280;31265;49.680;8.608;2023-06-22T02:51:50;100584.06;;;19.62;100.00
45541;BME280;31265;49.680;8.608;2023-06-22T02:54:20;100573.84;;;19.54;100.00
45541;BME280;31265;49.680;8.608;2023-06-22T02:56:51;100568.63;;;19.49;100.00
45541;BME280;31265;49.680;8.608;2023-06-22T02:59:21;100566.94;;;19.44;100.00
45541;BME280;31265;49.680;8.608;2023-06-22T03:01:59;100559.09;;;19.42;100.00
45541;BME280;31265;49.680;8.608;2023-06-22T03:04:32;100551.78;;;19.37;100.00
45541;BME280;31265;49.680;8.608;2023-06-22T03:07:00;100552.28;;;19.33;100.00
45541;BME280;31265;49.680;8.608;2023-06-22T03:09:30;100557.81;;;19.31;100.00
45541;BME280;31265;49.680;8.608;2023-06-22T03:11:59;100556.47;;;19.32;100.00
45541;BME280;31265;49.680;8.608;2023-06-22T03:14:37;100569.56;;;19.28;100.00
45541;BME280;31265;49.680;8.608;2023-06-22T03:17:07;100553.94;;;19.25;100.00
45541;BME280;31265;49.680;8.608;2023-06-22T03:19:36;100550.22;;;19.34;100.00
45541;BME280;31265;49.680;8.608;2023-06-22T03:22:05;100542.28;;;19.30;100.00
45541;BME280;31265;49.680;8.608;2023-06-22T03:24:33;100548.63;;;19.31;100.00
45541;BME280;31265;49.680;8.608;2023-06-22T03:27:04;100540.09;;;19.29;100.00
45541;BME280;31265;49.680;8.608;2023-06-22T03:29:34;100538.63;;;19.28;100.00
45541;BME280;31265;49.680;8.608;2023-06-22T03:32:03;100537.69;;;19.23;100.00
45541;BME280;31265;49.680;8.608;2023-06-22T03:34:33;100537.47;;;19.19;100.00
45541;BME280;31265;49.680;8.608;2023-06-22T03:37:04;100526.72;;;19.16;100.00
45541;BME280;31265;49.680;8.608;2023-06-22T03:39:32;100524.53;;;19.14;100.00
45541;BME280;31265;49.680;8.608;2023-06-22T03:42:00;100520.38;;;19.15;100.00
45541;BME280;31265;49.680;8.608;2023-06-22T03:44:29;100536.00;;;19.18;100.00
45541;BME280;31265;49.680;8.608;2023-06-22T03:46:58;100528.50;;;19.23;100.00
45541;BME280;31265;49.680;8.608;2023-06-22T03:49:26;100520.91;;;19.25;100.00
45541;BME280;31265;49.680;8.608;2023-06-22T03:51:55;100526.78;;;19.29;100.00
45541;BME280;31265;49.680;8.608;2023-06-22T03:54:24;100520.50;;;19.31;100.00
45541;BME280;31265;49.680;8.608;2023-06-22T03:56:54;100520.25;;;19.39;100.00
45541;BME280;31265;49.680;8.608;2023-06-22T03:59:23;100521.91;;;19.44;100.00
45541;BME280;31265;49.680;8.608;2023-06-22T04:01:51;100527.75;;;19.48;100.00
45541;BME280;31265;49.680;8.608;2023-06-22T04:04:22;100539.97;;;19.52;100.00
45541;BME280;31265;49.680;8.608;2023-06-22T04:06:50;100542.34;;;19.58;100.00
45541;BME280;31265;49.680;8.608;2023-06-22T04:09:20;100540.34;;;19.72;100.00
45541;BME280;31265;49.680;8.608;2023-06-22T04:11:49;100550.69;;;19.82;100.00
45541;BME280;31265;49.680;8.608;2023-06-22T04:14:17;100548.28;;;19.90;100.00
45541;BME280;31265;49.680;8.608;2023-06-22T04:16:47;100547.56;;;20.03;100.00
45541;BME280;31265;49.680;8.608;2023-06-22T04:19:17;100544.44;;;20.11;100.00
45541;BME280;31265;49.680;8.608;2023-06-22T04:21:47;100541.22;;;20.16;100.00
45541;BME280;31265;49.680;8.608;2023-06-22T04:24:15;100538.09;;;20.10;100.00
45541;BME280;31265;49.680;8.608;2023-06-22T04:26:45;100532.88;;;20.18;100.00
45541;BME280;31265;49.680;8.608;2023-06-22T04:29:14;100530.88;;;20.21;100.00
45541;BME280;31265;49.680;8.608;2023-06-22T04:31:42;100530.03;;;20.32;100.00
45541;BME280;31265;49.680;8.608;2023-06-22T04:34:10;100532.13;;;20.32;100.00
45541;BME280;31265;49.680;8.608;2023-06-22T04:36:40;100529.72;;;20.40;100.00
45541;BME280;31265;49.680;8.608;2023-06-22T04:39:10;100526.66;;;20.50;100.00
45541;BME280;31265;49.680;8.608;2023-06-22T04:41:39;100531.16;;;20.41;100.00
45541;BME280;31265;49.680;8.608;2023-06-22T04:44:12;100528.03;;;20.35;100.00
45541;BME280;31265;49.680;8.608;2023-06-22T04:46:51;100521.34;;;20.42;100.00
45541;BME280;31265;49.680;8.608;2023-06-22T04:49:21;100516.56;;;20.58;100.00
45541;BME280;31265;49.680;8.608;2023-06-22T04:51:49;100523.63;;;20.59;100.00
45541;BME280;31265;49.680;8.608;2023-06-22T04:54:18;100515.94;;;20.60;100.00
45541;BME280;31265;49.680;8.608;2023-06-22T04:56:47;100524.66;;;20.52;100.00
45541;BME280;31265;49.680;8.608;2023-06-22T04:59:26;100525.84;;;20.61;100.00
45541;BME280;31265;49.680;8.608;2023-06-22T05:01:57;100511.19;;;20.65;100.00
45541;BME280;31265;49.680;8.608;2023-06-22T05:04:26;100506.81;;;20.75;100.00
45541;BME280;31265;49.680;8.608;2023-06-22T05:06:55;100501.53;;;20.83;100.00
45541;BME280;31265;49.680;8.608;2023-06-22T05:09:23;100504.50;;;21.01;100.00
45541;BME280;31265;49.680;8.608;2023-06-22T05:11:52;100495.91;;;21.29;100.00
45541;BME280;31265;49.680;8.608;2023-06-22T05:14:20;100496.75;;;21.32;100.00
45541;BME280;31265;49.680;8.608;2023-06-22T05:16:50;100498.53;;;21.25;100.00
45541;BME280;31265;49.680;8.608;2023-06-22T05:19:19;100490.63;;;21.37;100.00
45541;BME280;31265;49.680;8.608;2023-06-22T05:21:47;100482.56;;;21.45;100.00
45541;BME280;31265;49.680;8.608;2023-06-22T05:24:15;100470.19;;;21.53;100.00
45541;BME280;31265;49.680;8.608;2023-06-22T05:26:43;100473.72;;;21.53;100.00
45541;BME280;31265;49.680;8.608;2023-06-22T05:29:12;100472.53;;;21.58;100.00
45541;BME280;31265;49.680;8.608;2023-06-22T05:31:40;100479.09;;;21.79;100.00
45541;BME280;31265;49.680;8.608;2023-06-22T05:34:10;100474.88;;;21.80;100.00
45541;BME280;31265;49.680;8.608;2023-06-22T05:36:38;100476.28;;;22.12;100.00
45541;BME280;31265;49.680;8.608;2023-06-22T05:39:11;100476.84;;;22.09;100.00
45541;BME280;31265;49.680;8.608;2023-06-22T05:41:40;100478.66;;;22.18;100.00
45541;BME280;31265;49.680;8.608;2023-06-22T05:44:10;100476.19;;;22.26;100.00
45541;BME280;31265;49.680;8.608;2023-06-22T05:46:40;100472.03;;;22.45;100.00
45541;BME280;31265;49.680;8.608;2023-06-22T05:49:13;100471.94;;;22.61;100.00
45541;BME280;31265;49.680;8.608;2023-06-22T05:51:42;100468.16;;;22.72;100.00
45541;BME280;31265;49.680;8.608;2023-06-22T05:54:10;100470.06;;;22.86;100.00
45541;BME280;31265;49.680;8.608;2023-06-22T05:56:40;100465.09;;;23.02;100.00
45541;BME280;31265;49.680;8.608;2023-06-22T05:59:08;100467.31;;;23.06;100.00
45541;BME280;31265;49.680;8.608;2023-06-22T06:01:38;100465.97;;;23.27;100.00
45541;BME280;31265;49.680;8.608;2023-06-22T06:04:07;100468.25;;;23.50;100.00
45541;BME280;31265;49.680;8.608;2023-06-22T06:06:37;100458.34;;;23.49;100.00
45541;BME280;31265;49.680;8.608;2023-06-22T06:09:05;100457.91;;;23.57;100.00
45541;BME280;31265;49.680;8.608;2023-06-22T06:11:34;100469.16;;;23.75;100.00
45541;BME280;31265;49.680;8.608;2023-06-22T06:14:02;100457.31;;;23.80;100.00
45541;BME280;31265;49.680;8.608;2023-06-22T06:16:31;100448.78;;;24.00;100.00
45541;BME280;31265;49.680;8.608;2023-06-22T06:19:00;100466.44;;;24.19;100.00
45541;BME280;31265;49.680;8.608;2023-06-22T06:21:28;100444.09;;;24.29;100.00
45541;BME280;31265;49.680;8.608;2023-06-22T06:23:58;100450.38;;;24.48;100.00
45541;BME280;31265;49.680;8.608;2023-06-22T06:26:27;100463.75;;;24.67;100.00
45541;BME280;31265;49.680;8.608;2023-06-22T06:28:56;100459.75;;;24.98;100.00
45541;BME280;31265;49.680;8.608;2023-06-22T06:31:25;100453.63;;;25.32;100.00
45541;BME280;31265;49.680;8.608;2023-06-22T06:33:55;100462.34;;;25.38;100.00
45541;BME280;31265;49.680;8.608;2023-06-22T06:36:24;100469.66;;;25.71;100.00
45541;BME280;31265;49.680;8.608;2023-06-22T06:38:52;100450.44;;;25.70;100.00
45541;BME280;31265;49.680;8.608;2023-06-22T06:41:22;100460.63;;;26.05;100.00
45541;BME280;31265;49.680;8.608;2023-06-22T06:43:50;100449.44;;;26.13;100.00
45541;BME280;31265;49.680;8.608;2023-06-22T06:46:18;100436.94;;;26.25;100.00
45541;BME280;31265;49.680;8.608;2023-06-22T06:48:47;100437.81;;;26.31;100.00
45541;BME280;31265;49.680;8.608;2023-06-22T06:51:15;100446.88;;;26.84;100.00
45541;BME280;31265;49.680;8.608;2023-06-22T06:53:44;100451.84;;;27.16;100.00
45541;BME280;31265;49.680;8.608;2023-06-22T06:56:12;100433.63;;;27.29;100.00
45541;BME280;31265;49.680;8.608;2023-06-22T06:58:42;100434.00;;;27.48;100.00
45541;BME280;31265;49.680;8.608;2023-06-22T07:01:12;100432.72;;;27.55;100.00
45541;BME280;31265;49.680;8.608;2023-06-22T07:03:41;100433.00;;;27.35;100.00
45541;BME280;31265;49.680;8.608;2023-06-22T07:06:09;100435.06;;;26.96;100.00
45541;BME280;31265;49.680;8.608;2023-06-22T07:08:37;100428.22;;;27.09;100.00
45541;BME280;31265;49.680;8.608;2023-06-22T07:11:07;100427.59;;;27.13;100.00
45541;BME280;31265;49.680;8.608;2023-06-22T07:13:35;100431.69;;;27.06;100.00
45541;BME280;31265;49.680;8.608;2023-06-22T07:16:04;100432.72;;;26.86;100.00
45541;BME280;31265;49.680;8.608;2023-06-22T07:18:33;100427.19;;;26.62;100.00
45541;BME280;31265;49.680;8.608;2023-06-22T07:21:01;100433.03;;;27.00;100.00
45541;BME280;31265;49.680;8.608;2023-06-22T07:23:30;100425.47;;;27.50;100.00
45541;BME280;31265;49.680;8.608;2023-06-22T07:25:58;100425.56;;;27.54;100.00
45541;BME280;31265;49.680;8.608;2023-06-22T07:28:28;100410.38;;;27.81;100.00
45541;BME280;31265;49.680;8.608;2023-06-22T07:30:58;100407.25;;;27.65;100.00
45541;BME280;31265;49.680;8.608;2023-06-22T07:33:27;100416.72;;;27.39;100.00
45541;BME280;31265;49.680;8.608;2023-06-22T07:35:56;100417.63;;;27.48;100.00
45541;BME280;31265;49.680;8.608;2023-06-22T07:38:24;100405.00;;;27.98;100.00
45541;BME280;31265;49.680;8.608;2023-06-22T07:40:52;100411.94;;;28.31;100.00
45541;BME280;31265;49.680;8.608;2023-06-22T07:43:20;100409.88;;;27.91;100.00
45541;BME280;31265;49.680;8.608;2023-06-22T07:45:50;100413.03;;;28.54;100.00
45541;BME280;31265;49.680;8.608;2023-06-22T07:48:20;100417.59;;;28.73;100.00
45541;BME280;31265;49.680;8.608;2023-06-22T07:50:50;100421.97;;;28.34;100.00
45541;BME280;31265;49.680;8.608;2023-06-22T07:53:20;100425.81;;;28.51;100.00
45541;BME280;31265;49.680;8.608;2023-06-22T07:55:48;100416.84;;;29.26;100.00
45541;BME280;31265;49.680;8.608;2023-06-22T07:58:17;100420.81;;;29.61;100.00
45541;BME280;31265;49.680;8.608;2023-06-22T08:00:46;100420.31;;;29.81;100.00
45541;BME280;31265;49.680;8.608;2023-06-22T08:03:15;100413.94;;;29.89;100.00
45541;BME280;31265;49.680;8.608;2023-06-22T08:05:44;100415.41;;;29.94;100.00
45541;BME280;31265;49.680;8.608;2023-06-22T08:08:14;100423.81;;;30.63;100.00
45541;BME280;31265;49.680;8.608;2023-06-22T08:10:42;100414.00;;;29.97;100.00
45541;BME280;31265;49.680;8.608;2023-06-22T08:13:10;100414.94;;;30.22;100.00
45541;BME280;31265;49.680;8.608;2023-06-22T08:15:38;100412.44;;;30.75;96.44
45541;BME280;31265;49.680;8.608;2023-06-22T08:18:07;100413.31;;;31.02;93.86
45541;BME280;31265;49.680;8.608;2023-06-22T08:20:35;100399.69;;;30.97;92.68
45541;BME280;31265;49.680;8.608;2023-06-22T08:23:04;100392.72;;;31.59;90.50
45541;BME280;31265;49.680;8.608;2023-06-22T08:25:35;100390.56;;;31.56;87.09
45541;BME280;31265;49.680;8.608;2023-06-22T08:28:04;100386.50;;;30.45;100.00
45541;BME280;31265;49.680;8.608;2023-06-22T08:30:32;100388.25;;;30.99;95.76
45541;BME280;31265;49.680;8.608;2023-06-22T08:33:00;100378.34;;;31.43;84.63
45541;BME280;31265;49.680;8.608;2023-06-22T08:35:29;100382.63;;;31.36;96.56
45541;BME280;31265;49.680;8.608;2023-06-22T08:37:58;100383.25;;;31.01;93.50
45541;BME280;31265;49.680;8.608;2023-06-22T08:40:26;100385.44;;;31.11;95.92
45541;BME280;31265;49.680;8.608;2023-06-22T08:42:57;100380.69;;;30.30;100.00
45541;BME280;31265;49.680;8.608;2023-06-22T08:45:26;100384.47;;;30.61;95.18
45541;BME280;31265;49.680;8.608;2023-06-22T08:47:57;100380.41;;;31.10;92.85
45541;BME280;31265;49.680;8.608;2023-06-22T08:50:25;100375.56;;;31.78;86.77
45541;BME280;31265;49.680;8.608;2023-06-22T08:52:54;100375.50;;;32.53;87.86
45541;BME280;31265;49.680;8.608;2023-06-22T08:55:25;100382.69;;;32.40;83.59
45541;BME280;31265;49.680;8.608;2023-06-22T08:57:53;100392.50;;;30.90;89.35
45541;BME280;31265;49.680;8.608;2023-06-22T09:00:23;100380.25;;;30.81;97.83
45541;BME280;31265;49.680;8.608;2023-06-22T09:02:51;100380.88;;;30.59;97.50
45541;BME280;31265;49.680;8.608;2023-06-22T09:05:20;100362.34;;;30.74;98.27
45541;BME280;31265;49.680;8.608;2023-06-22T09:07:48;100365.50;;;31.77;85.70
45541;BME280;31265;49.680;8.608;2023-06-22T09:10:17;100354.72;;;32.24;83.68
45541;BME280;31265;49.680;8.608;2023-06-22T09:12:46;100350.75;;;33.32;75.20
45541;BME280;31265;49.680;8.608;2023-06-22T09:15:14;100347.31;;;33.09;76.23
45541;BME280;31265;49.680;8.608;2023-06-22T09:17:46;100351.88;;;31.81;82.32
45541;BME280;31265;49.680;8.608;2023-06-22T09:20:15;100347.56;;;32.23;87.84
45541;BME280;31265;49.680;8.608;2023-06-22T09:22:43;100349.00;;;31.83;85.81
45541;BME280;31265;49.680;8.608;2023-06-22T09:25:12;100349.72;;;31.74;87.64
45541;BME280;31265;49.680;8.608;2023-06-22T09:27:40;100347.53;;;32.29;82.30
45541;BME280;31265;49.680;8.608;2023-06-22T09:30:09;100344.63;;;31.21;90.58
45541;BME280;31265;49.680;8.608;2023-06-22T09:32:37;100338.25;;;31.84;93.40
45541;BME280;31265;49.680;8.608;2023-06-22T09:35:08;100348.31;;;32.05;87.37
45541;BME280;31265;49.680;8.608;2023-06-22T09:37:37;100343.88;;;32.68;79.79
45541;BME280;31265;49.680;8.608;2023-06-22T09:40:06;100347.25;;;33.22;79.51
45541;BME280;31265;49.680;8.608;2023-06-22T09:42:38;100331.09;;;33.68;79.66
45541;BME280;31265;49.680;8.608;2023-06-22T09:45:07;100336.38;;;34.23;71.42
45541;BME280;31265;49.680;8.608;2023-06-22T09:47:36;100326.47;;;34.03;71.31
45541;BME280;31265;49.680;8.608;2023-06-22T09:50:06;100319.97;;;33.14;74.71
45541;BME280;31265;49.680;8.608;2023-06-22T09:52:35;100314.38;;;33.89;72.66
45541;BME280;31265;49.680;8.608;2023-06-22T09:55:07;100300.91;;;33.69;71.36
45541;BME280;31265;49.680;8.608;2023-06-22T09:57:37;100286.88;;;34.10;78.21
45541;BME280;31265;49.680;8.608;2023-06-22T10:00:19;100298.03;;;34.41;68.13
45541;BME280;31265;49.680;8.608;2023-06-22T10:02:48;100285.13;;;34.36;67.18
45541;BME280;31265;49.680;8.608;2023-06-22T10:05:19;100277.13;;;33.72;78.21
45541;BME280;31265;49.680;8.608;2023-06-22T10:07:47;100272.00;;;32.80;78.33
45541;BME280;31265;49.680;8.608;2023-06-22T10:10:15;100269.78;;;33.88;69.05
45541;BME280;31265;49.680;8.608;2023-06-22T10:12:46;100266.97;;;33.83;69.32
45541;BME280;31265;49.680;8.608;2023-06-22T10:15:15;100258.16;;;34.64;67.63
45541;BME280;31265;49.680;8.608;2023-06-22T10:17:44;100246.56;;;33.28;68.49
45541;BME280;31265;49.680;8.608;2023-06-22T10:20:12;100238.69;;;34.02;77.67
45541;BME280;31265;49.680;8.608;2023-06-22T10:22:42;100231.31;;;33.48;68.52
45541;BME280;31265;49.680;8.608;2023-06-22T10:25:12;100221.00;;;34.41;70.86
45541;BME280;31265;49.680;8.608;2023-06-22T10:27:40;100228.09;;;33.89;75.20
45541;BME280;31265;49.680;8.608;2023-06-22T10:30:10;100224.47;;;33.08;73.56
45541;BME280;31265;49.680;8.608;2023-06-22T10:32:41;100213.91;;;32.71;78.10
45541;BME280;31265;49.680;8.608;2023-06-22T10:35:09;100222.66;;;33.52;70.53
45541;BME280;31265;49.680;8.608;2023-06-22T10:37:42;100224.47;;;34.52;69.76
45541;BME280;31265;49.680;8.608;2023-06-22T10:40:12;100227.69;;;35.70;64.95
45541;BME280;31265;49.680;8.608;2023-06-22T10:42:42;100215.78;;;35.91;59.94
45541;BME280;31265;49.680;8.608;2023-06-22T10:45:11;100202.31;;;34.92;61.13
45541;BME280;31265;49.680;8.608;2023-06-22T10:47:39;100187.84;;;33.84;64.27
45541;BME280;31265;49.680;8.608;2023-06-22T10:50:10;100189.19;;;35.01;60.29
45541;BME280;31265;49.680;8.608;2023-06-22T10:52:38;100185.38;;;34.70;60.05
45541;BME280;31265;49.680;8.608;2023-06-22T10:55:09;100177.34;;;36.01;53.86
45541;BME280;31265;49.680;8.608;2023-06-22T10:57:37;100171.06;;;36.25;59.16
45541;BME280;31265;49.680;8.608;2023-06-22T11:00:09;100182.53;;;35.54;55.63
45541;BME280;31265;49.680;8.608;2023-06-22T11:02:38;100181.38;;;35.39;60.88
45541;BME280;31265;49.680;8.608;2023-06-22T11:05:07;100163.34;;;35.78;53.85
45541;BME280;31265;49.680;8.608;2023-06-22T11:07:37;100159.72;;;35.80;57.79
45541;BME280;31265;49.680;8.608;2023-06-22T11:10:06;100152.59;;;35.77;63.03
45541;BME280;31265;49.680;8.608;2023-06-22T11:12:36;100152.81;;;36.68;57.40
45541;BME280;31265;49.680;8.608;2023-06-22T11:15:05;100160.41;;;35.43;57.72
45541;BME280;31265;49.680;8.608;2023-06-22T11:17:33;100153.78;;;35.48;54.98
45541;BME280;31265;49.680;8.608;2023-06-22T11:20:02;100151.88;;;35.37;59.87
45541;BME280;31265;49.680;8.608;2023-06-22T11:22:37;100157.28;;;34.70;61.22
45541;BME280;31265;49.680;8.608;2023-06-22T11:25:07;100154.72;;;33.15;63.84
45541;BME280;31265;49.680;8.608;2023-06-22T11:27:36;100158.09;;;34.09;63.10
45541;BME280;31265;49.680;8.608;2023-06-22T11:30:06;100158.31;;;33.88;64.90
45541;BME280;31265;49.680;8.608;2023-06-22T11:32:35;100158.91;;;33.99;65.81
45541;BME280;31265;49.680;8.608;2023-06-22T11:35:04;100150.03;;;34.71;60.62
45541;BME280;31265;49.680;8.608;2023-06-22T11:37:32;100148.47;;;33.69;62.51
45541;BME280;31265;49.680;8.608;2023-06-22T11:40:00;100144.19;;;34.28;65.06
45541;BME280;31265;49.680;8.608;2023-06-22T11:42:34;100139.81;;;34.80;60.14
45541;BME280;31265;49.680;8.608;2023-06-22T11:45:06;100132.25;;;35.43;59.95
45541;BME280;31265;49.680;8.608;2023-06-22T11:47:35;100122.13;;;36.19;61.57
45541;BME280;31265;49.680;8.608;2023-06-22T11:50:04;100127.00;;;36.27;55.31
45541;BME280;31265;49.680;8.608;2023-06-22T11:52:33;100122.81;;;35.86;54.25
45541;BME280;31265;49.680;8.608;2023-06-22T11:55:03;100129.47;;;34.96;55.52
45541;BME280;31265;49.680;8.608;2023-06-22T11:57:33;100130.00;;;35.06;62.82
45541;BME280;31265;49.680;8.608;2023-06-22T12:00:04;100135.59;;;35.19;55.99
45541;BME280;31265;49.680;8.608;2023-06-22T12:02:43;100133.13;;;34.44;67.35
45541;BME280;31265;49.680;8.608;2023-06-22T12:05:12;100135.13;;;34.56;60.01
45541;BME280;31265;49.680;8.608;2023-06-22T12:07:40;100137.41;;;34.47;58.26
45541;BME280;31265;49.680;8.608;2023-06-22T12:10:09;100135.09;;;34.58;64.77
45541;BME280;31265;49.680;8.608;2023-06-22T12:12:38;100126.81;;;35.27;61.09
45541;BME280;31265;49.680;8.608;2023-06-22T12:15:09;100132.00;;;35.60;56.63
45541;BME280;31265;49.680;8.608;2023-06-22T12:17:37;100134.88;;;35.60;53.28
45541;BME280;31265;49.680;8.608;2023-06-22T12:20:06;100117.53;;;35.62;57.26
45541;BME280;31265;49.680;8.608;2023-06-22T12:22:35;100118.97;;;34.78;56.24
45541;BME280;31265;49.680;8.608;2023-06-22T12:25:05;100108.69;;;34.43;62.10
45541;BME280;31265;49.680;8.608;2023-06-22T12:27:34;100106.25;;;34.62;58.20
45541;BME280;31265;49.680;8.608;2023-06-22T12:30:03;100120.06;;;34.99;58.06
45541;BME280;31265;49.680;8.608;2023-06-22T12:32:32;100110.31;;;34.80;58.06
45541;BME280;31265;49.680;8.608;2023-06-22T12:35:01;100103.03;;;33.79;63.99
45541;BME280;31265;49.680;8.608;2023-06-22T12:37:29;100111.06;;;34.29;59.33
45541;BME280;31265;49.680;8.608;2023-06-22T12:39:58;100116.59;;;34.45;61.25
45541;BME280;31265;49.680;8.608;2023-06-22T12:42:26;100121.31;;;35.13;58.63
45541;BME280;31265;49.680;8.608;2023-06-22T12:44:55;100122.63;;;35.94;54.78
45541;BME280;31265;49.680;8.608;2023-06-22T12:47:23;100120.00;;;36.49;50.20
45541;BME280;31265;49.680;8.608;2023-06-22T12:49:53;100127.47;;;36.37;54.16
45541;BME280;31265;49.680;8.608;2023-06-22T12:52:21;100128.47;;;36.59;52.13
45541;BME280;31265;49.680;8.608;2023-06-22T12:54:49;100130.00;;;36.54;53.37